Time;durP1;ratioP1;P1;durP2;ratioP2;P2;SDS_P1;SDS_P2;PMS_P1;PMS_P2;Temp;Humidity;BMP_temperature;BMP_pressure;BME280_temperature;BME280_humidity;BME280_pressure;Samples;Min_cycle;Max_cycle;Signal;HPM_P1;HPM_P2
2021/07/03 00:02:19;;;;;;;0.90;0.90;;;;;;;;;;5018456;28;20211;-47
2021/07/03 00:04:45;;;;;;;2.67;1.10;;;;;;;;;;5029349;28;20188;-47
2021/07/03 00:07:11;;;;;;;1.75;1.00;;;;;;;;;;5008416;28;20183;-47
2021/07/03 00:09:38;;;;;;;0.73;0.73;;;;;;;;;;4995358;28;20181;-47
2021/07/03 00:12:06;;;;;;;0.88;0.80;;;;;;;;;;5004728;28;20615;-47
2021/07/03 00:14:32;;;;;;;2.45;0.90;;;;;;;;;;5001068;28;20305;-47
2021/07/03 00:16:58;;;;;;;1.10;0.70;;;;;;;;;;4998667;28;20628;-47
2021/07/03 00:19:24;;;;;;;0.75;0.75;;;;;;;;;;5021543;28;20263;-47
2021/07/03 00:21:50;;;;;;;1.70;0.90;;;;;;;;;;5012156;28;20497;-47
2021/07/03 00:24:17;;;;;;;0.80;0.80;;;;;;;;;;5008886;28;20235;-47
2021/07/03 00:26:43;;;;;;;0.80;0.80;;;;;;;;;;4998887;28;20185;-47
2021/07/03 00:29:09;;;;;;;1.00;0.80;;;;;;;;;;5002748;28;20184;-47
2021/07/03 00:31:35;;;;;;;1.00;1.00;;;;;;;;;;4996312;28;20184;-47
2021/07/03 00:34:01;;;;;;;0.80;0.80;;;;;;;;;;5015002;28;20185;-47
2021/07/03 00:36:27;;;;;;;0.77;0.77;;;;;;;;;;5013932;28;20192;-47
2021/07/03 00:38:53;;;;;;;2.10;0.90;;;;;;;;;;5014285;28;20254;-47
2021/07/03 00:41:19;;;;;;;0.70;0.70;;;;;;;;;;5013040;28;20179;-47
2021/07/03 00:43:45;;;;;;;1.50;0.70;;;;;;;;;;4995064;28;20185;-47
2021/07/03 00:46:12;;;;;;;1.25;0.85;;;;;;;;;;4995765;28;20242;-47
2021/07/03 00:48:38;;;;;;;0.70;0.70;;;;;;;;;;4995353;28;20583;-47
2021/07/03 00:51:04;;;;;;;0.80;0.80;;;;;;;;;;5014019;28;20318;-47
2021/07/03 00:53:30;;;;;;;3.92;0.80;;;;;;;;;;5012425;28;20177;-47
2021/07/03 00:55:57;;;;;;;0.98;0.95;;;;;;;;;;4996201;28;20243;-47
2021/07/03 00:58:23;;;;;;;0.68;0.63;;;;;;;;;;5009690;28;20188;-47
2021/07/03 01:00:49;;;;;;;0.90;0.90;;;;;;;;;;5002743;28;20188;-47
2021/07/03 01:03:15;;;;;;;1.25;0.88;;;;;;;;;;5016709;28;20548;-47
2021/07/03 01:05:41;;;;;;;1.70;0.80;;;;;;;;;;5005874;28;20193;-47
2021/07/03 01:08:07;;;;;;;1.50;0.98;;;;;;;;;;4998423;28;20228;-47
2021/07/03 01:10:33;;;;;;;0.85;0.85;;;;;;;;;;5004908;28;20267;-47
2021/07/03 01:12:59;;;;;;;2.00;0.95;;;;;;;;;;5010710;28;20180;-47
2021/07/03 01:15:25;;;;;;;1.40;1.00;;;;;;;;;;5006707;28;20260;-47
2021/07/03 01:17:51;;;;;;;0.85;0.85;;;;;;;;;;5015953;28;20214;-47
2021/07/03 01:20:18;;;;;;;1.38;0.77;;;;;;;;;;5018109;28;20196;-47
2021/07/03 01:22:45;;;;;;;0.82;0.75;;;;;;;;;;5011256;28;20185;-47
2021/07/03 01:25:12;;;;;;;0.90;0.90;;;;;;;;;;5010450;28;20180;-47
2021/07/03 01:27:38;;;;;;;0.80;0.80;;;;;;;;;;5001221;28;20227;-47
2021/07/03 01:30:05;;;;;;;0.75;0.70;;;;;;;;;;5011720;28;20184;-47
2021/07/03 01:32:31;;;;;;;0.82;0.82;;;;;;;;;;5017984;28;20176;-47
2021/07/03 01:34:57;;;;;;;0.75;0.75;;;;;;;;;;5011554;28;20192;-47
2021/07/03 01:37:23;;;;;;;1.15;1.08;;;;;;;;;;5003896;28;20518;-47
2021/07/03 01:39:50;;;;;;;2.38;1.00;;;;;;;;;;4998684;28;20619;-47
2021/07/03 01:42:16;;;;;;;0.65;0.65;;;;;;;;;;5016830;28;20271;-47
2021/07/03 01:44:44;;;;;;;0.80;0.80;;;;;;;;;;5015307;28;20181;-47
2021/07/03 01:47:10;;;;;;;1.05;1.05;;;;;;;;;;5016911;28;20255;-47
2021/07/03 01:49:37;;;;;;;1.25;0.90;;;;;;;;;;5012196;28;20184;-47
2021/07/03 01:52:04;;;;;;;0.70;0.70;;;;;;;;;;5012747;28;20184;-47
2021/07/03 01:54:30;;;;;;;0.77;0.77;;;;;;;;;;5017663;28;20176;-47
2021/07/03 01:56:59;;;;;;;0.98;0.98;;;;;;;;;;4997608;28;20205;-47
2021/07/03 01:59:26;;;;;;;0.90;0.90;;;;;;;;;;5017409;28;20621;-47
2021/07/03 02:01:53;;;;;;;0.90;0.90;;;;;;;;;;5036789;28;20270;-47
2021/07/03 02:04:20;;;;;;;2.50;0.98;;;;;;;;;;5026820;28;20192;-47
2021/07/03 02:06:46;;;;;;;1.35;0.80;;;;;;;;;;5000463;28;20181;-47
2021/07/03 02:09:12;;;;;;;0.90;0.90;;;;;;;;;;4997284;28;20181;-47
2021/07/03 02:11:38;;;;;;;1.27;1.17;;;;;;;;;;5003624;28;20184;-47
2021/07/03 02:14:04;;;;;;;0.90;0.90;;;;;;;;;;5012944;28;20188;-47
2021/07/03 02:16:30;;;;;;;1.85;1.17;;;;;;;;;;4997052;28;20211;-47
2021/07/03 02:18:56;;;;;;;1.02;1.02;;;;;;;;;;5015337;28;20219;-47
2021/07/03 02:21:22;;;;;;;2.13;1.15;;;;;;;;;;5017076;28;20164;-47
2021/07/03 02:23:48;;;;;;;2.03;1.00;;;;;;;;;;5017036;28;20169;-47
2021/07/03 02:26:14;;;;;;;1.17;1.17;;;;;;;;;;5011436;28;20246;-47
2021/07/03 02:28:40;;;;;;;1.75;1.20;;;;;;;;;;5009765;28;20191;-47
2021/07/03 02:31:06;;;;;;;0.90;0.90;;;;;;;;;;4996955;28;20224;-47
2021/07/03 02:33:32;;;;;;;1.92;0.90;;;;;;;;;;4998353;28;20177;-47
2021/07/03 02:35:59;;;;;;;2.05;0.90;;;;;;;;;;4996775;28;20201;-47
2021/07/03 02:38:25;;;;;;;2.00;1.00;;;;;;;;;;4997068;28;20188;-47
2021/07/03 02:40:51;;;;;;;0.90;0.90;;;;;;;;;;4999190;28;20170;-47
2021/07/03 02:43:17;;;;;;;0.82;0.82;;;;;;;;;;5010174;28;20176;-47
2021/07/03 02:45:43;;;;;;;1.30;1.20;;;;;;;;;;5010337;28;20555;-47
2021/07/03 02:48:09;;;;;;;1.60;1.10;;;;;;;;;;5005040;28;20191;-47
2021/07/03 02:50:35;;;;;;;0.80;0.80;;;;;;;;;;5036472;28;20459;-47
2021/07/03 02:53:02;;;;;;;1.15;1.10;;;;;;;;;;5031427;28;20184;-47
2021/07/03 02:55:28;;;;;;;1.17;1.08;;;;;;;;;;5011200;28;20244;-47
2021/07/03 02:57:54;;;;;;;1.10;1.10;;;;;;;;;;4999050;28;20185;-47
2021/07/03 03:00:20;;;;;;;1.00;0.98;;;;;;;;;;5005726;28;20181;-47
2021/07/03 03:02:47;;;;;;;0.90;0.90;;;;;;;;;;4996804;28;20219;-47
2021/07/03 03:05:13;;;;;;;1.35;0.90;;;;;;;;;;5002271;28;20621;-47
2021/07/03 03:07:40;;;;;;;1.17;1.10;;;;;;;;;;5015402;28;20181;-47
2021/07/03 03:10:07;;;;;;;1.15;1.08;;;;;;;;;;5014629;28;20211;-47
2021/07/03 03:12:33;;;;;;;1.10;1.10;;;;;;;;;;4999411;28;20172;-47
2021/07/03 03:14:59;;;;;;;1.85;1.08;;;;;;;;;;5007225;28;20197;-47
2021/07/03 03:17:25;;;;;;;0.98;0.98;;;;;;;;;;5003676;28;20212;-47
2021/07/03 03:19:51;;;;;;;2.25;0.98;;;;;;;;;;5015337;28;20164;-47
2021/07/03 03:22:17;;;;;;;2.45;1.02;;;;;;;;;;5015949;28;20176;-47
2021/07/03 03:24:45;;;;;;;3.15;1.00;;;;;;;;;;4996704;28;20205;-47
2021/07/03 03:27:11;;;;;;;1.60;1.10;;;;;;;;;;5008083;28;20172;-47
2021/07/03 03:29:37;;;;;;;1.00;1.00;;;;;;;;;;5000768;28;20560;-47
2021/07/03 03:32:04;;;;;;;0.80;0.80;;;;;;;;;;4996136;28;20201;-47
2021/07/03 03:34:30;;;;;;;1.30;0.80;;;;;;;;;;4996117;28;20174;-47
2021/07/03 03:36:56;;;;;;;0.80;0.80;;;;;;;;;;5004374;28;20258;-47
2021/07/03 03:39:22;;;;;;;2.92;0.95;;;;;;;;;;5015475;28;20160;-47
2021/07/03 03:41:48;;;;;;;1.08;1.05;;;;;;;;;;5007223;28;20176;-47
2021/07/03 03:44:14;;;;;;;1.83;1.00;;;;;;;;;;5008129;28;20541;-47
2021/07/03 03:46:40;;;;;;;0.95;0.95;;;;;;;;;;4995462;28;20180;-47
2021/07/03 03:49:06;;;;;;;2.03;0.90;;;;;;;;;;5004507;28;20182;-47
2021/07/03 03:51:32;;;;;;;2.90;1.10;;;;;;;;;;5021628;28;20181;-47
2021/07/03 03:53:58;;;;;;;1.85;0.90;;;;;;;;;;5008658;28;20188;-47
2021/07/03 03:56:24;;;;;;;0.95;0.95;;;;;;;;;;4998228;28;20764;-47
2021/07/03 03:58:50;;;;;;;0.80;0.80;;;;;;;;;;5007243;28;20180;-47
2021/07/03 04:01:16;;;;;;;1.20;1.00;;;;;;;;;;4997157;28;20197;-46
2021/07/03 04:03:42;;;;;;;2.28;1.08;;;;;;;;;;4999671;28;20499;-47
2021/07/03 04:06:08;;;;;;;0.93;0.90;;;;;;;;;;5006763;28;20192;-46
2021/07/03 04:08:35;;;;;;;1.48;1.35;;;;;;;;;;5014676;28;20219;-47
2021/07/03 04:11:01;;;;;;;3.42;1.25;;;;;;;;;;5013634;28;20263;-47
2021/07/03 04:13:27;;;;;;;1.58;1.17;;;;;;;;;;5004555;28;20602;-47
2021/07/03 04:15:53;;;;;;;54.42;13.82;;;;;;;;;;5014634;28;20230;-47
2021/07/03 04:18:19;;;;;;;61.42;14.68;;;;;;;;;;5012380;28;20439;-47
2021/07/03 04:20:45;;;;;;;39.58;8.43;;;;;;;;;;4996331;28;20188;-47
2021/07/03 04:23:11;;;;;;;26.73;6.70;;;;;;;;;;4995361;28;20170;-47
2021/07/03 04:25:37;;;;;;;13.98;5.22;;;;;;;;;;5008658;28;20180;-47
2021/07/03 04:28:03;;;;;;;23.30;5.30;;;;;;;;;;5009439;28;20588;-47
2021/07/03 04:30:29;;;;;;;16.30;5.10;;;;;;;;;;5007324;28;20567;-47
2021/07/03 04:32:56;;;;;;;16.02;5.32;;;;;;;;;;4995140;28;20181;-47
2021/07/03 04:35:22;;;;;;;31.40;6.85;;;;;;;;;;4995203;28;20584;-47
2021/07/03 04:37:48;;;;;;;23.88;6.43;;;;;;;;;;4994570;28;20208;-47
2021/07/03 04:40:14;;;;;;;23.48;6.10;;;;;;;;;;5011336;28;20682;-47
2021/07/03 04:42:40;;;;;;;24.23;6.93;;;;;;;;;;4996250;28;20192;-47
2021/07/03 04:45:07;;;;;;;21.45;6.78;;;;;;;;;;5004053;28;20173;-47
2021/07/03 04:47:33;;;;;;;19.52;6.30;;;;;;;;;;4994554;28;20556;-47
2021/07/03 04:49:59;;;;;;;18.73;6.05;;;;;;;;;;5011630;28;20192;-47
2021/07/03 04:52:26;;;;;;;20.08;6.50;;;;;;;;;;5014835;28;20252;-47
2021/07/03 04:54:52;;;;;;;20.08;6.47;;;;;;;;;;5006976;28;20577;-47
2021/07/03 04:57:18;;;;;;;20.27;6.80;;;;;;;;;;5004777;28;20491;-47
2021/07/03 04:59:44;;;;;;;19.75;5.53;;;;;;;;;;5000641;28;20181;-46
2021/07/03 05:02:12;;;;;;;18.58;5.93;;;;;;;;;;5007609;28;20172;-47
2021/07/03 05:04:38;;;;;;;16.38;5.85;;;;;;;;;;5000768;28;20208;-47
2021/07/03 05:07:04;;;;;;;18.88;5.50;;;;;;;;;;4994436;28;20235;-47
2021/07/03 05:09:30;;;;;;;17.58;5.38;;;;;;;;;;4994608;28;20170;-47
2021/07/03 05:11:56;;;;;;;17.70;5.45;;;;;;;;;;4997797;28;20192;-47
2021/07/03 05:14:22;;;;;;;18.30;5.22;;;;;;;;;;5003840;28;20184;-47
2021/07/03 05:16:48;;;;;;;18.95;6.18;;;;;;;;;;4994319;28;20335;-47
2021/07/03 05:19:15;;;;;;;22.00;6.40;;;;;;;;;;4994912;28;20542;-47
2021/07/03 05:21:41;;;;;;;15.70;6.03;;;;;;;;;;4994677;28;20170;-47
2021/07/03 05:24:07;;;;;;;14.40;5.45;;;;;;;;;;4999035;28;21771;-47
2021/07/03 05:26:33;;;;;;;15.90;4.75;;;;;;;;;;4998938;28;20532;-47
2021/07/03 05:28:59;;;;;;;14.15;5.25;;;;;;;;;;5007498;28;20176;-47
2021/07/03 05:31:26;;;;;;;16.33;5.60;;;;;;;;;;5004313;28;20181;-47
2021/07/03 05:33:52;;;;;;;10.02;4.68;;;;;;;;;;5003225;28;20523;-47
2021/07/03 05:36:18;;;;;;;14.00;4.68;;;;;;;;;;4999611;28;20639;-47
2021/07/03 05:38:47;;;;;;;12.93;4.35;;;;;;;;;;5006272;28;20200;-47
2021/07/03 05:41:13;;;;;;;13.15;4.65;;;;;;;;;;5005770;28;20177;-47
2021/07/03 05:43:39;;;;;;;8.30;3.00;;;;;;;;;;5007149;28;20181;-47
2021/07/03 05:46:05;;;;;;;6.85;3.17;;;;;;;;;;5014520;28;20552;-47
2021/07/03 05:48:31;;;;;;;9.73;3.42;;;;;;;;;;5016919;28;20184;-46
2021/07/03 05:50:57;;;;;;;10.02;3.55;;;;;;;;;;5012179;28;20177;-47
2021/07/03 05:53:23;;;;;;;9.93;3.28;;;;;;;;;;5005971;28;20580;-46
2021/07/03 05:55:49;;;;;;;12.02;3.67;;;;;;;;;;5002489;28;20219;-47
2021/07/03 05:58:15;;;;;;;7.55;2.72;;;;;;;;;;5003367;28;20184;-47
2021/07/03 06:00:41;;;;;;;9.32;3.47;;;;;;;;;;5012854;28;20187;-47
2021/07/03 06:03:07;;;;;;;5.45;2.53;;;;;;;;;;5017441;28;20183;-46
2021/07/03 06:05:34;;;;;;;5.45;2.53;;;;;;;;;;5002609;28;20208;-47
2021/07/03 06:08:00;;;;;;;4.93;2.42;;;;;;;;;;4997506;28;20173;-46
2021/07/03 06:10:26;;;;;;;2.85;2.45;;;;;;;;;;4998232;28;20185;-47
2021/07/03 06:12:52;;;;;;;5.95;2.60;;;;;;;;;;5013685;28;20234;-47
2021/07/03 06:15:18;;;;;;;3.10;2.47;;;;;;;;;;5007692;28;20218;-47
2021/07/03 06:17:44;;;;;;;4.40;2.60;;;;;;;;;;5012751;28;20205;-47
2021/07/03 06:20:10;;;;;;;4.97;2.40;;;;;;;;;;5030327;28;20194;-47
2021/07/03 06:22:37;;;;;;;4.05;2.92;;;;;;;;;;5017368;28;20191;-47
2021/07/03 06:25:04;;;;;;;4.22;2.70;;;;;;;;;;5009062;28;20550;-47
2021/07/03 06:27:30;;;;;;;4.70;3.03;;;;;;;;;;5013425;28;20189;-48
2021/07/03 06:29:56;;;;;;;4.55;2.85;;;;;;;;;;5005767;28;20431;-47
2021/07/03 06:32:22;;;;;;;3.38;2.95;;;;;;;;;;5003612;28;20211;-47
2021/07/03 06:34:48;;;;;;;7.60;5.20;;;;;;;;;;5017021;28;20620;-47
2021/07/03 06:37:14;;;;;;;5.65;4.25;;;;;;;;;;5001875;28;20212;-47
2021/07/03 06:39:43;;;;;;;7.10;5.30;;;;;;;;;;4997133;28;20284;-47
2021/07/03 06:42:09;;;;;;;6.00;5.05;;;;;;;;;;4997330;28;20176;-47
2021/07/03 06:44:35;;;;;;;4.22;3.83;;;;;;;;;;5011057;28;20193;-47
2021/07/03 06:47:01;;;;;;;4.28;3.75;;;;;;;;;;5015771;28;20181;-47
2021/07/03 06:49:27;;;;;;;6.80;5.10;;;;;;;;;;5015574;28;20216;-47
2021/07/03 06:51:53;;;;;;;7.53;5.93;;;;;;;;;;5016524;28;20181;-46
2021/07/03 06:54:19;;;;;;;9.93;7.28;;;;;;;;;;5005589;28;20189;-47
2021/07/03 06:56:45;;;;;;;10.43;7.97;;;;;;;;;;5015914;28;20763;-47
2021/07/03 06:59:11;;;;;;;7.93;6.60;;;;;;;;;;4998753;28;20189;-47
2021/07/03 07:01:37;;;;;;;7.57;6.05;;;;;;;;;;5028725;28;20200;-47
2021/07/03 07:04:03;;;;;;;5.28;4.47;;;;;;;;;;5027491;28;20278;-47
2021/07/03 07:06:29;;;;;;;6.35;5.65;;;;;;;;;;5010413;28;20191;-46
2021/07/03 07:08:55;;;;;;;6.90;5.75;;;;;;;;;;4996280;28;20646;-47
2021/07/03 07:11:21;;;;;;;8.15;6.10;;;;;;;;;;5009147;28;20184;-47
2021/07/03 07:13:47;;;;;;;6.47;5.20;;;;;;;;;;5009800;28;20181;-47
2021/07/03 07:16:13;;;;;;;5.22;4.60;;;;;;;;;;4997982;28;20208;-47
2021/07/03 07:18:39;;;;;;;5.78;5.20;;;;;;;;;;5012495;28;20184;-47
2021/07/03 07:21:05;;;;;;;5.68;5.05;;;;;;;;;;5009303;28;20209;-47
2021/07/03 07:23:31;;;;;;;7.35;6.18;;;;;;;;;;4996385;28;20665;-47
2021/07/03 07:25:57;;;;;;;9.55;6.78;;;;;;;;;;4996019;28;20196;-47
2021/07/03 07:28:23;;;;;;;13.43;5.82;;;;;;;;;;5002606;28;20259;-47
2021/07/03 07:30:49;;;;;;;7.30;5.60;;;;;;;;;;4997383;28;20517;-47
2021/07/03 07:33:15;;;;;;;7.40;5.35;;;;;;;;;;4997567;28;20188;-47
2021/07/03 07:35:41;;;;;;;5.57;4.80;;;;;;;;;;4996292;28;20181;-47
2021/07/03 07:38:07;;;;;;;5.28;4.55;;;;;;;;;;4995658;28;20224;-47
2021/07/03 07:40:33;;;;;;;5.72;5.05;;;;;;;;;;4998697;28;20185;-47
2021/07/03 07:42:59;;;;;;;5.93;5.28;;;;;;;;;;5011254;28;20185;-46
2021/07/03 07:45:25;;;;;;;5.97;5.47;;;;;;;;;;4995658;28;20177;-47
2021/07/03 07:47:51;;;;;;;6.85;5.32;;;;;;;;;;4995394;28;20178;-47
2021/07/03 07:50:17;;;;;;;5.15;4.47;;;;;;;;;;4996865;28;20265;-47
2021/07/03 07:52:44;;;;;;;8.40;6.28;;;;;;;;;;4995899;28;20786;-47
2021/07/03 07:55:10;;;;;;;10.73;7.60;;;;;;;;;;4995908;28;20544;-47
2021/07/03 07:57:36;;;;;;;9.63;6.80;;;;;;;;;;5004330;28;20282;-47
2021/07/03 08:00:02;;;;;;;5.90;5.38;;;;;;;;;;5006433;28;20201;-47
2021/07/03 08:02:28;;;;;;;9.75;6.20;;;;;;;;;;4995318;28;20173;-47
2021/07/03 08:04:54;;;;;;;7.55;6.68;;;;;;;;;;5009344;28;20222;-47
2021/07/03 08:07:20;;;;;;;7.60;6.47;;;;;;;;;;4997206;28;20283;-47
2021/07/03 08:09:46;;;;;;;7.47;6.10;;;;;;;;;;5003240;28;20214;-47
2021/07/03 08:12:12;;;;;;;5.50;5.00;;;;;;;;;;5012919;28;20552;-47
2021/07/03 08:14:39;;;;;;;6.45;5.50;;;;;;;;;;5003244;28;20565;-47
2021/07/03 08:17:05;;;;;;;8.23;5.43;;;;;;;;;;5011899;28;20295;-47
2021/07/03 08:19:31;;;;;;;6.10;5.60;;;;;;;;;;5014852;28;20169;-47
2021/07/03 08:21:58;;;;;;;7.85;7.05;;;;;;;;;;5013601;28;20544;-47
2021/07/03 08:24:24;;;;;;;6.80;5.90;;;;;;;;;;5003942;28;20865;-46
2021/07/03 08:26:50;;;;;;;6.90;6.20;;;;;;;;;;4995035;28;20770;-47
2021/07/03 08:29:16;;;;;;;7.05;5.13;;;;;;;;;;5006977;28;20271;-47
2021/07/03 08:31:42;;;;;;;5.50;5.00;;;;;;;;;;4995196;28;20185;-47
2021/07/03 08:34:08;;;;;;;6.25;5.13;;;;;;;;;;5001930;28;20216;-47
2021/07/03 08:36:34;;;;;;;7.57;5.65;;;;;;;;;;5014362;28;20766;-47
2021/07/03 08:39:00;;;;;;;6.30;5.63;;;;;;;;;;5012122;28;20185;-47
2021/07/03 08:41:27;;;;;;;7.00;5.00;;;;;;;;;;5014718;28;20539;-47
2021/07/03 08:43:53;;;;;;;6.30;5.05;;;;;;;;;;5003615;28;20181;-47
2021/07/03 08:46:22;;;;;;;5.55;5.05;;;;;;;;;;5012402;28;20169;-47
2021/07/03 08:48:52;;;;;;;5.60;5.10;;;;;;;;;;5009267;28;20188;-47
2021/07/03 08:51:18;;;;;;;5.95;5.18;;;;;;;;;;4995156;28;20188;-47
2021/07/03 08:53:44;;;;;;;5.63;4.90;;;;;;;;;;4996322;28;20204;-47
2021/07/03 08:56:10;;;;;;;6.53;5.88;;;;;;;;;;4996385;28;20209;-47
2021/07/03 08:58:36;;;;;;;7.45;5.07;;;;;;;;;;5000852;28;20185;-47
2021/07/03 09:01:04;;;;;;;7.90;5.75;;;;;;;;;;5010881;28;20552;-47
2021/07/03 09:03:30;;;;;;;5.80;5.20;;;;;;;;;;5011748;28;20181;-47
2021/07/03 09:05:57;;;;;;;6.45;5.20;;;;;;;;;;4994865;28;20197;-47
2021/07/03 09:08:24;;;;;;;5.85;5.10;;;;;;;;;;4995092;28;20177;-47
2021/07/03 09:11:00;;;;;;;7.60;5.45;;;;;;;;;;5005304;28;20173;-47
2021/07/03 09:13:26;;;;;;;6.30;5.43;;;;;;;;;;5011506;28;20187;-47
2021/07/03 09:15:54;;;;;;;5.28;4.80;;;;;;;;;;5013750;28;20188;-47
2021/07/03 09:18:20;;;;;;;8.05;4.88;;;;;;;;;;5014185;28;20281;-47
2021/07/03 09:20:50;;;;;;;6.47;5.40;;;;;;;;;;5018231;28;20177;-47
2021/07/03 09:23:18;;;;;;;6.47;5.00;;;;;;;;;;5006059;28;20204;-47
2021/07/03 09:25:46;;;;;;;8.35;6.53;;;;;;;;;;5008977;28;20173;-47
2021/07/03 09:28:14;;;;;;;5.90;5.30;;;;;;;;;;5002472;28;20507;-47
2021/07/03 09:30:40;;;;;;;6.05;5.45;;;;;;;;;;5011598;28;20435;-47
2021/07/03 09:33:06;;;;;;;5.15;4.65;;;;;;;;;;5017437;28;20188;-47
2021/07/03 09:35:32;;;;;;;6.35;5.60;;;;;;;;;;5018082;28;20543;-47
2021/07/03 09:38:04;;;;;;;5.28;4.68;;;;;;;;;;5017347;28;20201;-47
2021/07/03 09:40:31;;;;;;;5.97;5.13;;;;;;;;;;5017261;28;20177;-47
2021/07/03 09:43:03;;;;;;;6.03;4.70;;;;;;;;;;5006021;28;20216;-47
2021/07/03 09:45:29;;;;;;;5.45;4.43;;;;;;;;;;5008777;28;20173;-47
2021/07/03 09:48:05;;;;;;;5.22;4.50;;;;;;;;;;5017187;28;20185;-47
2021/07/03 09:50:31;;;;;;;5.20;4.70;;;;;;;;;;5017577;28;20265;-47
2021/07/03 09:53:00;;;;;;;5.43;4.93;;;;;;;;;;5002608;28;20208;-47
2021/07/03 09:55:26;;;;;;;4.90;4.20;;;;;;;;;;5003381;28;20556;-47
2021/07/03 09:57:52;;;;;;;5.55;4.55;;;;;;;;;;5002959;28;20220;-47
2021/07/03 10:00:19;;;;;;;5.00;4.13;;;;;;;;;;5006919;28;20191;-47
2021/07/03 10:02:45;;;;;;;6.00;4.22;;;;;;;;;;5017591;28;20576;-47
2021/07/03 10:05:12;;;;;;;4.63;4.10;;;;;;;;;;5018894;28;20603;-47
2021/07/03 10:07:40;;;;;;;6.10;5.00;;;;;;;;;;5036679;28;20314;-47
2021/07/03 10:10:13;;;;;;;6.18;5.57;;;;;;;;;;5031974;28;20177;-47
2021/07/03 10:12:43;;;;;;;5.65;4.32;;;;;;;;;;5000004;28;20178;-47
2021/07/03 10:15:09;;;;;;;5.32;3.80;;;;;;;;;;5001538;28;20189;-47
2021/07/03 10:17:36;;;;;;;4.63;4.22;;;;;;;;;;4996680;28;20721;-47
2021/07/03 10:20:05;;;;;;;5.28;4.78;;;;;;;;;;4997508;28;20259;-47
2021/07/03 10:22:32;;;;;;;4.18;3.80;;;;;;;;;;4997489;28;20157;-47
2021/07/03 10:24:59;;;;;;;4.13;3.50;;;;;;;;;;4999381;28;20188;-47
2021/07/03 10:27:27;;;;;;;4.53;4.13;;;;;;;;;;5007692;28;20193;-47
2021/07/03 10:29:54;;;;;;;6.53;4.40;;;;;;;;;;5008032;28;20232;-47
2021/07/03 10:32:27;;;;;;;4.70;4.20;;;;;;;;;;4998526;28;20185;-47
2021/07/03 10:34:53;;;;;;;4.20;3.80;;;;;;;;;;4997375;28;20524;-47
2021/07/03 10:37:30;;;;;;;4.18;3.85;;;;;;;;;;4996607;28;20205;-47
2021/07/03 10:39:57;;;;;;;4.38;4.00;;;;;;;;;;4997287;28;20252;-47
2021/07/03 10:42:30;;;;;;;4.30;3.90;;;;;;;;;;5000606;28;20496;-47
2021/07/03 10:45:06;;;;;;;4.28;3.80;;;;;;;;;;5012096;28;20172;-47
2021/07/03 10:47:33;;;;;;;6.32;4.10;;;;;;;;;;5036101;28;20221;-48
2021/07/03 10:49:59;;;;;;;4.82;3.38;;;;;;;;;;5021311;28;20184;-48
2021/07/03 10:52:25;;;;;;;4.00;3.60;;;;;;;;;;5016543;28;20181;-48
2021/07/03 10:55:01;;;;;;;3.80;3.40;;;;;;;;;;5014974;28;20190;-48
2021/07/03 10:57:27;;;;;;;4.47;3.55;;;;;;;;;;4998346;28;20208;-47
2021/07/03 11:00:04;;;;;;;4.32;3.90;;;;;;;;;;5009924;28;20172;-46
2021/07/03 11:02:31;;;;;;;4.65;3.75;;;;;;;;;;4996744;28;20169;-46
2021/07/03 11:04:57;;;;;;;3.78;3.15;;;;;;;;;;5025403;28;20226;-46
2021/07/03 11:07:27;;;;;;;3.60;3.30;;;;;;;;;;5003059;28;20180;-46
2021/07/03 11:10:04;;;;;;;3.75;3.40;;;;;;;;;;5012147;28;20223;-46
2021/07/03 11:12:30;;;;;;;3.78;3.47;;;;;;;;;;5011498;28;20184;-46
2021/07/03 11:14:57;;;;;;;3.55;3.22;;;;;;;;;;5018797;28;20190;-46
2021/07/03 11:17:24;;;;;;;3.38;3.08;;;;;;;;;;5035302;28;20234;-46
2021/07/03 11:19:51;;;;;;;3.50;3.20;;;;;;;;;;5021341;28;20177;-46
2021/07/03 11:22:21;;;;;;;3.72;3.17;;;;;;;;;;5015578;28;20168;-46
2021/07/03 11:24:49;;;;;;;3.58;3.05;;;;;;;;;;5012946;28;20509;-46
2021/07/03 11:27:28;;;;;;;3.65;3.08;;;;;;;;;;4996671;28;20443;-46
2021/07/03 11:29:55;;;;;;;3.70;3.20;;;;;;;;;;5015985;28;20191;-46
2021/07/03 11:32:21;;;;;;;3.20;2.95;;;;;;;;;;5016051;28;20192;-46
2021/07/03 11:34:57;;;;;;;3.42;3.13;;;;;;;;;;5001685;28;20174;-46
2021/07/03 11:37:29;;;;;;;3.28;3.00;;;;;;;;;;4998051;28;20611;-46
2021/07/03 11:39:56;;;;;;;3.13;2.80;;;;;;;;;;5015012;28;20215;-46
2021/07/03 11:42:26;;;;;;;4.22;3.10;;;;;;;;;;5014305;28;20536;-46
2021/07/03 11:44:53;;;;;;;3.30;2.95;;;;;;;;;;5010132;28;20578;-47
2021/07/03 11:47:19;;;;;;;3.15;2.85;;;;;;;;;;5013529;28;20274;-46
2021/07/03 11:49:45;;;;;;;2.85;2.65;;;;;;;;;;5015572;28;20192;-47
2021/07/03 11:52:11;;;;;;;3.22;2.70;;;;;;;;;;5015404;28;20185;-47
2021/07/03 11:54:37;;;;;;;4.15;2.80;;;;;;;;;;5014524;28;20176;-46
2021/07/03 11:57:03;;;;;;;3.28;2.97;;;;;;;;;;4996580;28;20291;-46
2021/07/03 11:59:29;;;;;;;3.05;2.78;;;;;;;;;;5007603;28;20181;-47
2021/07/03 12:01:55;;;;;;;2.70;2.50;;;;;;;;;;5005974;28;20213;-46
2021/07/03 12:04:21;;;;;;;2.85;2.65;;;;;;;;;;5005314;28;20662;-47
2021/07/03 12:06:57;;;;;;;2.83;2.60;;;;;;;;;;5014817;28;20177;-47
2021/07/03 12:09:23;;;;;;;2.65;2.45;;;;;;;;;;5012861;28;20589;-47
2021/07/03 12:11:55;;;;;;;3.47;2.70;;;;;;;;;;4996326;28;20185;-46
2021/07/03 12:14:21;;;;;;;2.70;2.50;;;;;;;;;;5007332;28;20181;-47
2021/07/03 12:16:55;;;;;;;2.72;2.53;;;;;;;;;;5005889;28;20204;-47
2021/07/03 12:19:21;;;;;;;2.85;2.58;;;;;;;;;;5015051;28;20161;-47
2021/07/03 12:21:47;;;;;;;2.70;2.50;;;;;;;;;;5014328;28;20226;-49
2021/07/03 12:24:13;;;;;;;2.60;2.30;;;;;;;;;;5014690;28;20250;-49
2021/07/03 12:26:43;;;;;;;2.50;2.30;;;;;;;;;;5000910;28;20560;-49
2021/07/03 12:29:11;;;;;;;2.53;2.10;;;;;;;;;;5001826;28;20193;-49
2021/07/03 12:31:45;;;;;;;2.75;2.38;;;;;;;;;;5014625;28;20187;-48
2021/07/03 12:34:11;;;;;;;2.35;2.15;;;;;;;;;;5004303;28;20192;-49
2021/07/03 12:36:39;;;;;;;3.17;2.80;;;;;;;;;;4994656;28;20857;-49
2021/07/03 12:39:06;;;;;;;2.78;2.55;;;;;;;;;;4996422;28;20176;-49
2021/07/03 12:41:32;;;;;;;3.17;2.88;;;;;;;;;;5010444;28;20191;-49
2021/07/03 12:44:00;;;;;;;2.45;2.25;;;;;;;;;;5009732;28;20184;-48
2021/07/03 12:46:33;;;;;;;3.17;2.42;;;;;;;;;;5012297;28;20734;-47
2021/07/03 12:48:59;;;;;;;5.03;2.97;;;;;;;;;;5008615;28;20227;-47
2021/07/03 12:51:32;;;;;;;4.53;2.80;;;;;;;;;;5004427;28;20186;-47
2021/07/03 12:53:59;;;;;;;6.38;2.60;;;;;;;;;;5008022;28;20220;-47
2021/07/03 12:56:25;;;;;;;5.05;2.83;;;;;;;;;;5000334;28;20291;-47
2021/07/03 12:59:17;;;;;;;6.45;2.70;;;;;;;;;;5008841;28;20177;-47
2021/07/03 13:01:43;;;;;;;3.90;2.60;;;;;;;;;;4999079;28;20553;-47
2021/07/03 13:04:09;;;;;;;3.03;2.45;;;;;;;;;;5004089;28;20208;-47
2021/07/03 13:06:35;;;;;;;3.45;2.70;;;;;;;;;;5004998;28;20311;-47
2021/07/03 13:09:03;;;;;;;6.53;2.60;;;;;;;;;;5018496;28;20187;-46
2021/07/03 13:11:30;;;;;;;5.82;2.92;;;;;;;;;;5011990;28;20473;-47
2021/07/03 13:13:56;;;;;;;4.53;2.60;;;;;;;;;;5025691;28;20184;-47
2021/07/03 13:16:22;;;;;;;3.92;2.38;;;;;;;;;;5009157;28;20201;-46
2021/07/03 13:18:48;;;;;;;3.40;2.08;;;;;;;;;;4998458;28;20170;-47
2021/07/03 13:21:14;;;;;;;2.53;2.33;;;;;;;;;;5008790;28;20204;-47
2021/07/03 13:23:40;;;;;;;4.82;2.60;;;;;;;;;;5005627;28;20279;-47
2021/07/03 13:26:09;;;;;;;2.60;2.40;;;;;;;;;;5006594;28;20600;-47
2021/07/03 13:28:35;;;;;;;2.83;2.60;;;;;;;;;;5003841;28;20177;-49
2021/07/03 13:31:02;;;;;;;2.42;2.22;;;;;;;;;;5010443;28;20184;-47
2021/07/03 13:33:28;;;;;;;2.60;2.40;;;;;;;;;;4998113;28;20169;-47
2021/07/03 13:35:54;;;;;;;3.03;2.30;;;;;;;;;;5007029;28;20497;-47
2021/07/03 13:38:20;;;;;;;2.78;2.58;;;;;;;;;;5016215;28;20644;-47
2021/07/03 13:40:46;;;;;;;3.60;2.25;;;;;;;;;;5015758;28;20267;-47
2021/07/03 13:43:12;;;;;;;2.40;2.20;;;;;;;;;;5018046;28;20183;-47
2021/07/03 13:45:38;;;;;;;2.85;2.15;;;;;;;;;;5006040;28;20189;-47
2021/07/03 13:48:04;;;;;;;2.58;2.22;;;;;;;;;;5035532;28;20184;-47
2021/07/03 13:50:30;;;;;;;2.42;2.20;;;;;;;;;;5031337;28;20198;-47
2021/07/03 13:52:56;;;;;;;2.55;2.35;;;;;;;;;;5015945;28;20216;-47
2021/07/03 13:55:22;;;;;;;3.25;2.45;;;;;;;;;;5014058;28;20188;-47
2021/07/03 13:57:48;;;;;;;2.38;2.17;;;;;;;;;;4997651;28;20197;-47
2021/07/03 14:00:14;;;;;;;2.33;2.13;;;;;;;;;;5006107;28;20172;-47
2021/07/03 14:02:40;;;;;;;2.38;2.17;;;;;;;;;;5001304;28;20181;-47
2021/07/03 14:05:07;;;;;;;2.42;2.22;;;;;;;;;;4999874;28;20576;-47
2021/07/03 14:07:34;;;;;;;2.72;2.25;;;;;;;;;;5016338;28;20432;-47
2021/07/03 14:10:02;;;;;;;4.13;2.40;;;;;;;;;;5015398;28;20188;-47
2021/07/03 14:12:31;;;;;;;2.13;2.03;;;;;;;;;;5007884;28;20185;-47
2021/07/03 14:14:57;;;;;;;2.58;2.38;;;;;;;;;;5010800;28;20210;-47
2021/07/03 14:17:23;;;;;;;2.88;2.35;;;;;;;;;;5010087;28;20301;-47
2021/07/03 14:19:49;;;;;;;2.78;2.30;;;;;;;;;;5016887;28;20562;-47
2021/07/03 14:22:15;;;;;;;2.80;2.33;;;;;;;;;;4997798;28;20186;-47
2021/07/03 14:24:41;;;;;;;2.50;2.30;;;;;;;;;;4998211;28;20180;-47
2021/07/03 14:27:07;;;;;;;2.28;2.08;;;;;;;;;;4998656;28;20232;-47
2021/07/03 14:29:33;;;;;;;5.72;2.30;;;;;;;;;;5003409;28;20586;-47
2021/07/03 14:32:00;;;;;;;2.83;2.33;;;;;;;;;;5002237;28;20872;-47
2021/07/03 14:34:26;;;;;;;2.40;2.13;;;;;;;;;;4997400;28;20684;-47
2021/07/03 14:36:52;;;;;;;2.55;2.20;;;;;;;;;;5008034;28;20207;-47
2021/07/03 14:39:18;;;;;;;2.95;2.38;;;;;;;;;;5016399;28;20165;-47